sensor_id;sensor_type;location;lat;lon;timestamp;P1;durP1;ratioP1;P2;durP2;ratioP2
3901;SDS011;1966;49.908;9.156;2023-07-22T00:00:14;2.87;;;2.50;;
3901;SDS011;1966;49.908;9.156;2023-07-22T00:05:13;3.30;;;3.00;;
3901;SDS011;1966;49.908;9.156;2023-07-22T00:10:12;3.20;;;2.90;;
3901;SDS011;1966;49.908;9.156;2023-07-22T00:15:13;2.87;;;2.60;;
3901;SDS011;1966;49.908;9.156;2023-07-22T00:20:13;3.53;;;2.70;;
3901;SDS011;1966;49.908;9.156;2023-07-22T00:25:13;4.67;;;3.30;;
3901;SDS011;1966;49.908;9.156;2023-07-22T00:30:14;3.23;;;3.00;;
3901;SDS011;1966;49.908;9.156;2023-07-22T00:35:13;3.80;;;3.17;;
3901;SDS011;1966;49.908;9.156;2023-07-22T00:40:12;3.40;;;3.10;;
3901;SDS011;1966;49.908;9.156;2023-07-22T00:45:12;2.73;;;2.53;;
3901;SDS011;1966;49.908;9.156;2023-07-22T00:50:13;3.40;;;3.10;;
3901;SDS011;1966;49.908;9.156;2023-07-22T00:55:13;3.40;;;3.10;;
3901;SDS011;1966;49.908;9.156;2023-07-22T01:00:12;3.97;;;3.23;;
3901;SDS011;1966;49.908;9.156;2023-07-22T01:05:15;3.90;;;3.50;;
3901;SDS011;1966;49.908;9.156;2023-07-22T01:10:14;3.73;;;3.43;;
3901;SDS011;1966;49.908;9.156;2023-07-22T01:15:14;4.80;;;3.40;;
3901;SDS011;1966;49.908;9.156;2023-07-22T01:20:13;5.90;;;3.40;;
3901;SDS011;1966;49.908;9.156;2023-07-22T01:25:18;4.33;;;3.40;;
3901;SDS011;1966;49.908;9.156;2023-07-22T01:30:18;4.37;;;3.80;;
3901;SDS011;1966;49.908;9.156;2023-07-22T01:35:18;3.63;;;3.23;;
3901;SDS011;1966;49.908;9.156;2023-07-22T01:40:20;3.40;;;3.10;;
3901;SDS011;1966;49.908;9.156;2023-07-22T01:45:21;3.63;;;3.33;;
3901;SDS011;1966;49.908;9.156;2023-07-22T01:50:21;5.10;;;3.90;;
3901;SDS011;1966;49.908;9.156;2023-07-22T01:55:21;5.37;;;3.70;;
3901;SDS011;1966;49.908;9.156;2023-07-22T02:00:21;4.00;;;3.60;;
3901;SDS011;1966;49.908;9.156;2023-07-22T02:05:20;4.03;;;3.63;;
3901;SDS011;1966;49.908;9.156;2023-07-22T02:10:19;5.33;;;3.37;;
3901;SDS011;1966;49.908;9.156;2023-07-22T02:15:21;4.63;;;3.90;;
3901;SDS011;1966;49.908;9.156;2023-07-22T02:20:22;4.47;;;3.80;;
3901;SDS011;1966;49.908;9.156;2023-07-22T02:25:21;4.17;;;3.67;;
3901;SDS011;1966;49.908;9.156;2023-07-22T02:30:22;7.77;;;4.37;;
3901;SDS011;1966;49.908;9.156;2023-07-22T02:35:21;5.30;;;3.60;;
3901;SDS011;1966;49.908;9.156;2023-07-22T02:40:21;4.13;;;3.63;;
3901;SDS011;1966;49.908;9.156;2023-07-22T02:45:20;4.20;;;3.80;;
3901;SDS011;1966;49.908;9.156;2023-07-22T02:50:20;5.97;;;4.37;;
3901;SDS011;1966;49.908;9.156;2023-07-22T02:55:20;4.90;;;4.50;;
3901;SDS011;1966;49.908;9.156;2023-07-22T03:00:19;5.00;;;4.50;;
3901;SDS011;1966;49.908;9.156;2023-07-22T03:05:22;8.30;;;4.90;;
3901;SDS011;1966;49.908;9.156;2023-07-22T03:10:24;5.03;;;4.30;;
3901;SDS011;1966;49.908;9.156;2023-07-22T03:15:26;5.27;;;4.50;;
3901;SDS011;1966;49.908;9.156;2023-07-22T03:20:27;5.17;;;4.57;;
3901;SDS011;1966;49.908;9.156;2023-07-22T03:25:27;4.90;;;4.40;;
3901;SDS011;1966;49.908;9.156;2023-07-22T03:30:26;7.50;;;5.23;;
3901;SDS011;1966;49.908;9.156;2023-07-22T03:35:25;6.40;;;4.77;;
3901;SDS011;1966;49.908;9.156;2023-07-22T03:40:26;4.83;;;4.33;;
3901;SDS011;1966;49.908;9.156;2023-07-22T03:45:27;5.27;;;4.77;;
3901;SDS011;1966;49.908;9.156;2023-07-22T03:50:27;5.13;;;4.70;;
3901;SDS011;1966;49.908;9.156;2023-07-22T03:55:28;7.00;;;5.50;;
3901;SDS011;1966;49.908;9.156;2023-07-22T04:00:27;5.90;;;5.20;;
3901;SDS011;1966;49.908;9.156;2023-07-22T04:05:26;8.90;;;5.30;;
3901;SDS011;1966;49.908;9.156;2023-07-22T04:10:26;5.77;;;5.03;;
3901;SDS011;1966;49.908;9.156;2023-07-22T04:15:26;10.10;;;5.20;;
3901;SDS011;1966;49.908;9.156;2023-07-22T04:20:25;5.20;;;4.70;;
3901;SDS011;1966;49.908;9.156;2023-07-22T04:25:25;5.90;;;5.30;;
3901;SDS011;1966;49.908;9.156;2023-07-22T04:30:24;5.40;;;4.90;;
3901;SDS011;1966;49.908;9.156;2023-07-22T04:35:24;6.73;;;4.97;;
3901;SDS011;1966;49.908;9.156;2023-07-22T04:40:24;4.87;;;4.37;;
3901;SDS011;1966;49.908;9.156;2023-07-22T04:45:23;5.13;;;4.50;;
3901;SDS011;1966;49.908;9.156;2023-07-22T04:50:22;6.03;;;5.40;;
3901;SDS011;1966;49.908;9.156;2023-07-22T04:55:23;5.73;;;5.23;;
3901;SDS011;1966;49.908;9.156;2023-07-22T05:00:22;5.10;;;4.60;;
3901;SDS011;1966;49.908;9.156;2023-07-22T05:05:22;4.93;;;4.50;;
3901;SDS011;1966;49.908;9.156;2023-07-22T05:10:21;4.83;;;4.43;;
3901;SDS011;1966;49.908;9.156;2023-07-22T05:15:22;7.43;;;4.40;;
3901;SDS011;1966;49.908;9.156;2023-07-22T05:20:21;7.50;;;4.90;;
3901;SDS011;1966;49.908;9.156;2023-07-22T05:25:20;5.93;;;4.87;;
3901;SDS011;1966;49.908;9.156;2023-07-22T05:30:19;6.60;;;4.77;;
3901;SDS011;1966;49.908;9.156;2023-07-22T05:35:20;4.40;;;4.00;;
3901;SDS011;1966;49.908;9.156;2023-07-22T05:40:19;3.97;;;3.67;;
3901;SDS011;1966;49.908;9.156;2023-07-22T05:45:18;4.87;;;4.40;;
3901;SDS011;1966;49.908;9.156;2023-07-22T05:50:19;4.50;;;4.10;;
3901;SDS011;1966;49.908;9.156;2023-07-22T05:55:18;4.23;;;3.90;;
3901;SDS011;1966;49.908;9.156;2023-07-22T06:00:18;4.77;;;3.73;;
3901;SDS011;1966;49.908;9.156;2023-07-22T06:05:17;4.40;;;3.60;;
3901;SDS011;1966;49.908;9.156;2023-07-22T06:10:17;6.03;;;3.70;;
3901;SDS011;1966;49.908;9.156;2023-07-22T06:15:17;4.60;;;3.90;;
3901;SDS011;1966;49.908;9.156;2023-07-22T06:20:16;9.70;;;3.70;;
3901;SDS011;1966;49.908;9.156;2023-07-22T06:25:15;5.20;;;3.67;;
3901;SDS011;1966;49.908;9.156;2023-07-22T06:30:16;4.60;;;3.50;;
3901;SDS011;1966;49.908;9.156;2023-07-22T06:35:15;4.20;;;3.80;;
3901;SDS011;1966;49.908;9.156;2023-07-22T06:40:15;5.40;;;4.27;;
3901;SDS011;1966;49.908;9.156;2023-07-22T06:45:14;4.60;;;4.00;;
3901;SDS011;1966;49.908;9.156;2023-07-22T06:50:14;5.00;;;3.70;;
3901;SDS011;1966;49.908;9.156;2023-07-22T06:55:14;4.23;;;3.90;;
3901;SDS011;1966;49.908;9.156;2023-07-22T07:00:13;4.20;;;3.80;;
3901;SDS011;1966;49.908;9.156;2023-07-22T07:05:14;4.40;;;4.00;;
3901;SDS011;1966;49.908;9.156;2023-07-22T07:10:15;7.30;;;4.07;;
3901;SDS011;1966;49.908;9.156;2023-07-22T07:15:14;4.90;;;4.40;;
3901;SDS011;1966;49.908;9.156;2023-07-22T07:20:15;5.00;;;4.50;;
3901;SDS011;1966;49.908;9.156;2023-07-22T07:25:14;5.63;;;4.23;;
3901;SDS011;1966;49.908;9.156;2023-07-22T07:30:14;7.00;;;4.90;;
3901;SDS011;1966;49.908;9.156;2023-07-22T07:35:14;5.13;;;4.60;;
3901;SDS011;1966;49.908;9.156;2023-07-22T07:40:14;5.20;;;4.43;;
3901;SDS011;1966;49.908;9.156;2023-07-22T07:45:13;5.60;;;4.77;;
3901;SDS011;1966;49.908;9.156;2023-07-22T07:50:12;5.60;;;4.53;;
3901;SDS011;1966;49.908;9.156;2023-07-22T07:55:13;5.90;;;4.60;;
3901;SDS011;1966;49.908;9.156;2023-07-22T08:00:12;5.03;;;4.33;;
3901;SDS011;1966;49.908;9.156;2023-07-22T08:05:12;5.83;;;4.67;;
3901;SDS011;1966;49.908;9.156;2023-07-22T08:10:11;7.03;;;4.40;;
3901;SDS011;1966;49.908;9.156;2023-07-22T08:15:12;8.90;;;3.93;;
3901;SDS011;1966;49.908;9.156;2023-07-22T08:20:11;4.80;;;4.03;;
3901;SDS011;1966;49.908;9.156;2023-07-22T08:25:10;4.53;;;4.13;;
3901;SDS011;1966;49.908;9.156;2023-07-22T08:30:11;3.97;;;3.50;;
3901;SDS011;1966;49.908;9.156;2023-07-22T08:35:11;4.33;;;3.93;;
3901;SDS011;1966;49.908;9.156;2023-07-22T08:40:10;5.90;;;4.10;;
3901;SDS011;1966;49.908;9.156;2023-07-22T08:45:10;4.63;;;4.20;;
3901;SDS011;1966;49.908;9.156;2023-07-22T08:50:11;5.00;;;4.00;;
3901;SDS011;1966;49.908;9.156;2023-07-22T08:55:14;4.33;;;3.93;;
3901;SDS011;1966;49.908;9.156;2023-07-22T09:00:13;4.90;;;4.10;;
3901;SDS011;1966;49.908;9.156;2023-07-22T09:05:14;4.30;;;3.90;;
3901;SDS011;1966;49.908;9.156;2023-07-22T09:10:15;4.90;;;3.80;;
3901;SDS011;1966;49.908;9.156;2023-07-22T09:15:14;5.10;;;4.43;;
3901;SDS011;1966;49.908;9.156;2023-07-22T09:20:15;4.13;;;3.57;;
3901;SDS011;1966;49.908;9.156;2023-07-22T09:25:16;4.40;;;4.00;;
3901;SDS011;1966;49.908;9.156;2023-07-22T09:30:23;4.10;;;3.70;;
3901;SDS011;1966;49.908;9.156;2023-07-22T09:35:24;4.33;;;3.93;;
3901;SDS011;1966;49.908;9.156;2023-07-22T09:40:24;5.77;;;4.13;;
3901;SDS011;1966;49.908;9.156;2023-07-22T09:45:24;5.63;;;4.20;;
3901;SDS011;1966;49.908;9.156;2023-07-22T09:50:26;4.23;;;3.83;;
3901;SDS011;1966;49.908;9.156;2023-07-22T09:55:26;11.63;;;5.17;;
3901;SDS011;1966;49.908;9.156;2023-07-22T10:00:27;4.27;;;3.77;;
3901;SDS011;1966;49.908;9.156;2023-07-22T10:05:28;4.50;;;4.07;;
3901;SDS011;1966;49.908;9.156;2023-07-22T10:10:30;4.17;;;3.70;;
3901;SDS011;1966;49.908;9.156;2023-07-22T10:15:30;4.20;;;3.50;;
3901;SDS011;1966;49.908;9.156;2023-07-22T10:20:32;8.47;;;3.80;;
3901;SDS011;1966;49.908;9.156;2023-07-22T10:25:34;4.97;;;4.10;;
3901;SDS011;1966;49.908;9.156;2023-07-22T10:30:34;5.53;;;5.00;;
3901;SDS011;1966;49.908;9.156;2023-07-22T10:35:39;4.93;;;3.73;;
3901;SDS011;1966;49.908;9.156;2023-07-22T10:40:45;4.03;;;3.63;;
3901;SDS011;1966;49.908;9.156;2023-07-22T10:45:48;8.83;;;3.97;;
3901;SDS011;1966;49.908;9.156;2023-07-22T10:50:50;4.23;;;3.30;;
3901;SDS011;1966;49.908;9.156;2023-07-22T10:56:02;4.10;;;3.63;;
3901;SDS011;1966;49.908;9.156;2023-07-22T11:06:32;4.30;;;3.90;;
3901;SDS011;1966;49.908;9.156;2023-07-22T11:11:35;4.50;;;3.90;;
3901;SDS011;1966;49.908;9.156;2023-07-22T11:16:35;4.83;;;3.43;;
3901;SDS011;1966;49.908;9.156;2023-07-22T11:21:35;4.13;;;3.73;;
3901;SDS011;1966;49.908;9.156;2023-07-22T11:26:35;5.63;;;3.60;;
3901;SDS011;1966;49.908;9.156;2023-07-22T11:31:35;4.00;;;3.20;;
3901;SDS011;1966;49.908;9.156;2023-07-22T11:36:36;5.00;;;3.90;;
3901;SDS011;1966;49.908;9.156;2023-07-22T11:41:36;6.50;;;4.33;;
3901;SDS011;1966;49.908;9.156;2023-07-22T11:46:35;7.17;;;3.97;;
3901;SDS011;1966;49.908;9.156;2023-07-22T11:51:36;4.57;;;3.80;;
3901;SDS011;1966;49.908;9.156;2023-07-22T11:56:35;10.57;;;4.97;;
3901;SDS011;1966;49.908;9.156;2023-07-22T12:01:35;5.53;;;3.67;;
3901;SDS011;1966;49.908;9.156;2023-07-22T12:06:34;5.50;;;3.83;;
3901;SDS011;1966;49.908;9.156;2023-07-22T12:11:37;7.47;;;4.00;;
3901;SDS011;1966;49.908;9.156;2023-07-22T12:16:37;3.97;;;3.57;;
3901;SDS011;1966;49.908;9.156;2023-07-22T12:21:37;5.00;;;3.87;;
3901;SDS011;1966;49.908;9.156;2023-07-22T12:26:37;5.00;;;3.23;;
3901;SDS011;1966;49.908;9.156;2023-07-22T12:31:37;6.87;;;4.00;;
3901;SDS011;1966;49.908;9.156;2023-07-22T12:36:36;3.93;;;3.50;;
3901;SDS011;1966;49.908;9.156;2023-07-22T12:41:35;6.60;;;3.40;;
3901;SDS011;1966;49.908;9.156;2023-07-22T12:46:36;5.27;;;3.83;;
3901;SDS011;1966;49.908;9.156;2023-07-22T12:51:35;7.13;;;3.40;;
3901;SDS011;1966;49.908;9.156;2023-07-22T12:56:34;3.97;;;3.23;;
3901;SDS011;1966;49.908;9.156;2023-07-22T13:01:35;4.60;;;3.42;;
3901;SDS011;1966;49.908;9.156;2023-07-22T13:06:37;3.50;;;3.20;;
3901;SDS011;1966;49.908;9.156;2023-07-22T13:11:36;4.88;;;3.35;;
3901;SDS011;1966;49.908;9.156;2023-07-22T13:16:37;5.20;;;3.15;;
3901;SDS011;1966;49.908;9.156;2023-07-22T13:21:36;4.43;;;3.28;;
3901;SDS011;1966;49.908;9.156;2023-07-22T13:26:35;3.90;;;3.28;;
3901;SDS011;1966;49.908;9.156;2023-07-22T13:31:34;3.20;;;3.00;;
3901;SDS011;1966;49.908;9.156;2023-07-22T13:36:35;3.03;;;2.83;;
3901;SDS011;1966;49.908;9.156;2023-07-22T13:41:34;4.50;;;2.93;;
3901;SDS011;1966;49.908;9.156;2023-07-22T13:46:34;3.67;;;3.03;;
3901;SDS011;1966;49.908;9.156;2023-07-22T13:51:33;4.50;;;3.10;;
3901;SDS011;1966;49.908;9.156;2023-07-22T13:56:33;8.00;;;4.03;;
3901;SDS011;1966;49.908;9.156;2023-07-22T14:01:33;3.80;;;3.40;;
3901;SDS011;1966;49.908;9.156;2023-07-22T14:06:32;7.90;;;3.53;;
3901;SDS011;1966;49.908;9.156;2023-07-22T14:11:31;4.27;;;3.70;;
3901;SDS011;1966;49.908;9.156;2023-07-22T14:16:32;9.90;;;3.70;;
3901;SDS011;1966;49.908;9.156;2023-07-22T14:21:31;8.10;;;4.40;;
3901;SDS011;1966;49.908;9.156;2023-07-22T14:26:30;3.97;;;3.40;;
3901;SDS011;1966;49.908;9.156;2023-07-22T14:31:31;5.00;;;3.80;;
3901;SDS011;1966;49.908;9.156;2023-07-22T14:36:30;8.90;;;3.87;;
3901;SDS011;1966;49.908;9.156;2023-07-22T14:41:30;4.80;;;3.90;;
3901;SDS011;1966;49.908;9.156;2023-07-22T14:46:29;3.80;;;3.43;;
3901;SDS011;1966;49.908;9.156;2023-07-22T14:51:30;4.57;;;3.60;;
3901;SDS011;1966;49.908;9.156;2023-07-22T14:56:29;3.50;;;3.13;;
3901;SDS011;1966;49.908;9.156;2023-07-22T15:01:35;3.50;;;3.00;;
3901;SDS011;1966;49.908;9.156;2023-07-22T15:06:36;4.60;;;3.30;;
3901;SDS011;1966;49.908;9.156;2023-07-22T15:11:36;3.77;;;3.20;;
3901;SDS011;1966;49.908;9.156;2023-07-22T15:16:35;5.63;;;3.30;;
3901;SDS011;1966;49.908;9.156;2023-07-22T15:21:34;20.33;;;5.73;;
3901;SDS011;1966;49.908;9.156;2023-07-22T15:26:35;6.50;;;3.47;;
3901;SDS011;1966;49.908;9.156;2023-07-22T15:31:34;4.53;;;3.08;;
3901;SDS011;1966;49.908;9.156;2023-07-22T15:36:33;3.78;;;3.35;;
3901;SDS011;1966;49.908;9.156;2023-07-22T15:41:33;6.63;;;3.40;;
3901;SDS011;1966;49.908;9.156;2023-07-22T15:46:33;5.65;;;3.78;;
3901;SDS011;1966;49.908;9.156;2023-07-22T15:51:33;5.40;;;3.53;;
3901;SDS011;1966;49.908;9.156;2023-07-22T15:56:32;4.93;;;3.85;;
3901;SDS011;1966;49.908;9.156;2023-07-22T16:01:31;3.60;;;3.30;;
3901;SDS011;1966;49.908;9.156;2023-07-22T16:06:32;10.48;;;4.25;;
3901;SDS011;1966;49.908;9.156;2023-07-22T16:11:31;4.03;;;3.67;;
3901;SDS011;1966;49.908;9.156;2023-07-22T16:16:30;6.85;;;3.60;;
3901;SDS011;1966;49.908;9.156;2023-07-22T16:21:29;4.93;;;4.20;;
3901;SDS011;1966;49.908;9.156;2023-07-22T16:26:30;4.97;;;4.47;;
3901;SDS011;1966;49.908;9.156;2023-07-22T16:31:29;7.80;;;5.20;;
3901;SDS011;1966;49.908;9.156;2023-07-22T16:36:28;6.93;;;4.90;;
3901;SDS011;1966;49.908;9.156;2023-07-22T16:41:29;7.43;;;5.70;;
3901;SDS011;1966;49.908;9.156;2023-07-22T16:46:28;8.77;;;4.40;;
3901;SDS011;1966;49.908;9.156;2023-07-22T16:51:27;11.10;;;5.63;;
3901;SDS011;1966;49.908;9.156;2023-07-22T16:56:27;7.23;;;5.57;;
3901;SDS011;1966;49.908;9.156;2023-07-22T17:01:27;6.77;;;5.40;;
3901;SDS011;1966;49.908;9.156;2023-07-22T17:06:26;5.60;;;4.90;;
3901;SDS011;1966;49.908;9.156;2023-07-22T17:11:28;4.63;;;4.10;;
3901;SDS011;1966;49.908;9.156;2023-07-22T17:16:28;5.70;;;4.63;;
3901;SDS011;1966;49.908;9.156;2023-07-22T17:21:29;8.23;;;5.33;;
3901;SDS011;1966;49.908;9.156;2023-07-22T17:26:28;5.53;;;5.00;;
3901;SDS011;1966;49.908;9.156;2023-07-22T17:31:28;8.63;;;5.57;;
3901;SDS011;1966;49.908;9.156;2023-07-22T17:36:28;4.93;;;4.50;;
3901;SDS011;1966;49.908;9.156;2023-07-22T17:41:28;6.47;;;5.17;;
3901;SDS011;1966;49.908;9.156;2023-07-22T17:46:29;5.87;;;5.00;;
3901;SDS011;1966;49.908;9.156;2023-07-22T17:51:29;6.77;;;4.90;;
3901;SDS011;1966;49.908;9.156;2023-07-22T17:56:28;5.70;;;4.20;;
3901;SDS011;1966;49.908;9.156;2023-07-22T18:01:27;4.93;;;4.43;;
3901;SDS011;1966;49.908;9.156;2023-07-22T18:06:28;5.43;;;4.03;;
3901;SDS011;1966;49.908;9.156;2023-07-22T18:11:27;5.50;;;4.50;;
3901;SDS011;1966;49.908;9.156;2023-07-22T18:16:26;12.63;;;4.97;;
3901;SDS011;1966;49.908;9.156;2023-07-22T18:21:25;6.30;;;4.43;;
3901;SDS011;1966;49.908;9.156;2023-07-22T18:26:26;7.30;;;4.60;;
3901;SDS011;1966;49.908;9.156;2023-07-22T18:31:25;6.93;;;4.37;;
3901;SDS011;1966;49.908;9.156;2023-07-22T18:36:24;8.63;;;4.77;;
3901;SDS011;1966;49.908;9.156;2023-07-22T18:41:24;8.20;;;5.07;;
3901;SDS011;1966;49.908;9.156;2023-07-22T18:46:24;6.90;;;4.70;;
3901;SDS011;1966;49.908;9.156;2023-07-22T18:51:24;5.10;;;4.27;;
3901;SDS011;1966;49.908;9.156;2023-07-22T18:56:25;9.77;;;4.40;;
3901;SDS011;1966;49.908;9.156;2023-07-22T19:01:25;5.83;;;4.60;;
3901;SDS011;1966;49.908;9.156;2023-07-22T19:06:24;4.90;;;4.23;;
3901;SDS011;1966;49.908;9.156;2023-07-22T19:11:24;7.90;;;5.27;;
3901;SDS011;1966;49.908;9.156;2023-07-22T19:16:25;6.40;;;5.40;;
3901;SDS011;1966;49.908;9.156;2023-07-22T19:21:24;7.63;;;6.20;;
3901;SDS011;1966;49.908;9.156;2023-07-22T19:26:24;8.13;;;5.87;;
3901;SDS011;1966;49.908;9.156;2023-07-22T19:31:23;6.43;;;5.70;;
3901;SDS011;1966;49.908;9.156;2023-07-22T19:36:23;8.30;;;4.53;;
3901;SDS011;1966;49.908;9.156;2023-07-22T19:41:23;8.00;;;4.30;;
3901;SDS011;1966;49.908;9.156;2023-07-22T19:46:22;7.00;;;4.40;;
3901;SDS011;1966;49.908;9.156;2023-07-22T19:51:21;8.13;;;4.60;;
3901;SDS011;1966;49.908;9.156;2023-07-22T19:56:22;7.23;;;4.60;;
3901;SDS011;1966;49.908;9.156;2023-07-22T20:01:21;7.40;;;5.00;;
3901;SDS011;1966;49.908;9.156;2023-07-22T20:06:20;6.80;;;4.90;;
3901;SDS011;1966;49.908;9.156;2023-07-22T20:11:19;7.13;;;4.97;;
3901;SDS011;1966;49.908;9.156;2023-07-22T20:16:20;9.40;;;5.60;;
3901;SDS011;1966;49.908;9.156;2023-07-22T20:21:19;7.03;;;5.20;;
3901;SDS011;1966;49.908;9.156;2023-07-22T20:26:18;6.87;;;5.60;;
3901;SDS011;1966;49.908;9.156;2023-07-22T20:31:18;8.03;;;5.60;;
3901;SDS011;1966;49.908;9.156;2023-07-22T20:36:18;10.30;;;5.77;;
3901;SDS011;1966;49.908;9.156;2023-07-22T20:41:18;6.90;;;5.50;;
3901;SDS011;1966;49.908;9.156;2023-07-22T20:46:17;11.03;;;5.50;;
3901;SDS011;1966;49.908;9.156;2023-07-22T20:51:16;7.70;;;5.57;;
3901;SDS011;1966;49.908;9.156;2023-07-22T20:56:18;7.30;;;5.30;;
3901;SDS011;1966;49.908;9.156;2023-07-22T21:01:18;20.50;;;5.90;;
3901;SDS011;1966;49.908;9.156;2023-07-22T21:06:17;9.37;;;5.93;;
3901;SDS011;1966;49.908;9.156;2023-07-22T21:11:16;8.70;;;5.87;;
3901;SDS011;1966;49.908;9.156;2023-07-22T21:16:17;9.43;;;5.70;;
3901;SDS011;1966;49.908;9.156;2023-07-22T21:21:16;12.73;;;5.40;;
3901;SDS011;1966;49.908;9.156;2023-07-22T21:26:15;7.00;;;5.20;;
3901;SDS011;1966;49.908;9.156;2023-07-22T21:31:14;7.97;;;5.57;;
3901;SDS011;1966;49.908;9.156;2023-07-22T21:36:15;11.10;;;5.77;;
3901;SDS011;1966;49.908;9.156;2023-07-22T21:41:15;7.20;;;5.60;;
3901;SDS011;1966;49.908;9.156;2023-07-22T21:46:14;12.13;;;5.83;;
3901;SDS011;1966;49.908;9.156;2023-07-22T21:51:13;10.80;;;5.77;;
3901;SDS011;1966;49.908;9.156;2023-07-22T21:56:14;10.47;;;6.43;;
3901;SDS011;1966;49.908;9.156;2023-07-22T22:01:13;8.47;;;5.80;;
3901;SDS011;1966;49.908;9.156;2023-07-22T22:06:12;7.43;;;6.17;;
3901;SDS011;1966;49.908;9.156;2023-07-22T22:11:13;11.10;;;6.23;;
3901;SDS011;1966;49.908;9.156;2023-07-22T22:16:12;8.00;;;5.53;;
3901;SDS011;1966;49.908;9.156;2023-07-22T22:21:11;7.57;;;5.50;;
3901;SDS011;1966;49.908;9.156;2023-07-22T22:26:11;7.43;;;5.77;;
3901;SDS011;1966;49.908;9.156;2023-07-22T22:31:11;6.67;;;5.60;;
3901;SDS011;1966;49.908;9.156;2023-07-22T22:36:10;7.23;;;5.87;;
3901;SDS011;1966;49.908;9.156;2023-07-22T22:41:10;5.97;;;5.37;;
3901;SDS011;1966;49.908;9.156;2023-07-22T22:46:09;11.60;;;5.00;;
3901;SDS011;1966;49.908;9.156;2023-07-22T22:51:09;9.70;;;5.90;;
3901;SDS011;1966;49.908;9.156;2023-07-22T22:56:09;8.07;;;5.73;;
3901;SDS011;1966;49.908;9.156;2023-07-22T23:01:11;7.87;;;5.87;;
3901;SDS011;1966;49.908;9.156;2023-07-22T23:06:13;8.10;;;5.07;;
3901;SDS011;1966;49.908;9.156;2023-07-22T23:11:13;9.10;;;5.27;;
3901;SDS011;1966;49.908;9.156;2023-07-22T23:16:14;8.17;;;5.13;;
3901;SDS011;1966;49.908;9.156;2023-07-22T23:21:15;6.57;;;5.30;;
3901;SDS011;1966;49.908;9.156;2023-07-22T23:26:14;8.90;;;5.63;;
3901;SDS011;1966;49.908;9.156;2023-07-22T23:31:13;6.37;;;5.30;;
3901;SDS011;1966;49.908;9.156;2023-07-22T23:36:14;8.43;;;5.30;;
3901;SDS011;1966;49.908;9.156;2023-07-22T23:41:13;7.00;;;5.20;;
3901;SDS011;1966;49.908;9.156;2023-07-22T23:46:12;6.90;;;5.53;;
3901;SDS011;1966;49.908;9.156;2023-07-22T23:51:12;7.07;;;5.53;;
3901;SDS011;1966;49.908;9.156;2023-07-22T23:56:12;11.90;;;4.90;;
